Aviation Digital Data Service (ADDS)

Output produced by METARs form (0539 UTC 20 September 2017)
found at http://www.aviationweather.gov/adds/metars/
 
EPWA 200530Z 04007KT 9999 -RA NSC 12/10 Q1015 NOSIG
TAF EPWA 200530Z 2006/2106 02008KT 9999 -RA BKN030 
     BECMG 2007/2009 BKN014 
     TEMPO 2007/2019 4000 -RA BR BKN005 
     BECMG 2019/2021 BKN007 
     TEMPO 2021/2106 3000 BR BKN003